Time;durP1;ratioP1;P1;durP2;ratioP2;P2;SDS_P1;SDS_P2;PMS_P1;PMS_P2;Temp;Humidity;BMP_temperature;BMP_pressure;BME280_temperature;BME280_humidity;BME280_pressure;Samples;Min_cycle;Max_cycle;Signal;HPM_P1;HPM_P2
2022/12/21 00:01:45;;;;;;;37.20;19.88;;;;;;;;;;7391133;19;20392;-80
2022/12/21 00:04:10;;;;;;;38.70;19.92;;;;;;;;;;7394914;19;20006;-79
2022/12/21 00:06:38;;;;;;;37.92;21.13;;;;;;;;;;7391982;19;20070;-79
2022/12/21 00:09:06;;;;;;;42.90;22.55;;;;;;;;;;7391897;19;20417;-79
2022/12/21 00:11:33;;;;;;;43.42;20.67;;;;;;;;;;7392284;19;19999;-79
2022/12/21 00:14:00;;;;;;;43.80;21.20;;;;;;;;;;7391515;19;20333;-79
2022/12/21 00:16:28;;;;;;;30.60;18.45;;;;;;;;;;7392054;19;19995;-79
2022/12/21 00:18:55;;;;;;;40.92;20.45;;;;;;;;;;7389489;19;20016;-79
2022/12/21 00:21:26;;;;;;;39.67;20.27;;;;;;;;;;7388535;19;20028;-80
2022/12/21 00:23:53;;;;;;;40.05;20.33;;;;;;;;;;7390501;19;20003;-80
2022/12/21 00:26:21;;;;;;;39.67;19.55;;;;;;;;;;7390918;19;19995;-80
2022/12/21 00:28:49;;;;;;;40.92;20.98;;;;;;;;;;7392076;19;19994;-80
2022/12/21 00:31:17;;;;;;;39.88;20.25;;;;;;;;;;7389878;19;20003;-80
2022/12/21 00:33:44;;;;;;;37.63;19.08;;;;;;;;;;7390140;19;20006;-79
2022/12/21 00:36:11;;;;;;;41.05;21.13;;;;;;;;;;7390591;19;20460;-79
2022/12/21 00:38:37;;;;;;;38.80;19.92;;;;;;;;;;7390419;19;19995;-80
2022/12/21 00:41:08;;;;;;;42.33;19.80;;;;;;;;;;7390061;19;19998;-80
2022/12/21 00:43:34;;;;;;;;;;;;;;;;;;7391112;19;19998;-79
2022/12/21 00:46:00;;;;;;;37.25;17.40;;;;;;;;;;7390622;19;19995;-79
2022/12/21 00:48:26;;;;;;;37.25;18.55;;;;;;;;;;7390446;19;20004;-81
2022/12/21 00:50:52;;;;;;;36.38;19.50;;;;;;;;;;7389685;19;20009;-80
2022/12/21 00:53:17;;;;;;;32.05;18.58;;;;;;;;;;7385613;19;20066;-79
2022/12/21 00:55:56;;;;;;;34.40;18.65;;;;;;;;;;7390433;19;20023;-81
2022/12/21 00:58:23;;;;;;;43.15;20.02;;;;;;;;;;7390806;19;19990;-81
2022/12/21 01:00:48;;;;;;;32.13;18.10;;;;;;;;;;7388130;19;20433;-79
2022/12/21 01:03:13;;;;;;;33.95;17.48;;;;;;;;;;7389709;19;20016;-81
2022/12/21 01:05:39;;;;;;;37.67;17.88;;;;;;;;;;7389752;19;20112;-80
2022/12/21 01:08:04;;;;;;;31.83;16.80;;;;;;;;;;7391035;19;20027;-80
2022/12/21 01:10:29;;;;;;;32.58;18.50;;;;;;;;;;7390668;19;20033;-79
2022/12/21 01:12:55;;;;;;;40.08;19.17;;;;;;;;;;7386743;19;20018;-80
2022/12/21 01:15:20;;;;;;;34.15;17.65;;;;;;;;;;7390276;19;20010;-80
2022/12/21 01:17:47;;;;;;;33.63;17.75;;;;;;;;;;7383903;19;20097;-81
2022/12/21 01:20:13;;;;;;;35.20;17.10;;;;;;;;;;7384038;19;20014;-79
2022/12/21 01:22:38;;;;;;;33.90;18.73;;;;;;;;;;7387327;19;20007;-79
2022/12/21 01:25:03;;;;;;;38.80;19.13;;;;;;;;;;7384828;19;20450;-79
2022/12/21 01:27:29;;;;;;;32.78;19.05;;;;;;;;;;7388573;19;20329;-79
2022/12/21 01:29:54;;;;;;;36.22;18.40;;;;;;;;;;7389659;19;20010;-78
2022/12/21 01:32:20;;;;;;;35.58;18.23;;;;;;;;;;7389501;19;20511;-80
2022/12/21 01:34:45;;;;;;;33.85;17.70;;;;;;;;;;7388538;19;20002;-81
2022/12/21 01:37:10;;;;;;;34.17;16.90;;;;;;;;;;7390180;19;20356;-79
2022/12/21 01:39:35;;;;;;;32.28;16.42;;;;;;;;;;7391557;19;20005;-81
2022/12/21 01:42:01;;;;;;;34.53;17.60;;;;;;;;;;7388117;19;20002;-80
2022/12/21 01:44:45;;;;;;;28.30;15.48;;;;;;;;;;7387826;19;20002;-80
2022/12/21 01:47:19;;;;;;;36.42;16.77;;;;;;;;;;7389159;19;20037;-79
2022/12/21 01:49:49;;;;;;;30.73;16.25;;;;;;;;;;7388962;19;20467;-80
2022/12/21 01:52:14;;;;;;;26.77;15.23;;;;;;;;;;7388150;19;20119;-78
2022/12/21 01:54:45;;;;;;;29.50;15.93;;;;;;;;;;7386728;19;20036;-79
2022/12/21 01:57:13;;;;;;;29.88;16.52;;;;;;;;;;7389215;19;20003;-79
2022/12/21 01:59:45;;;;;;;30.05;15.98;;;;;;;;;;7389116;19;20008;-79
2022/12/21 02:02:18;;;;;;;32.80;16.10;;;;;;;;;;7389127;19;20003;-78
2022/12/21 02:04:44;;;;;;;30.83;16.00;;;;;;;;;;7386269;19;20013;-79
2022/12/21 02:07:12;;;;;;;25.50;16.05;;;;;;;;;;7388774;19;20056;-79
2022/12/21 02:09:38;;;;;;;28.60;15.75;;;;;;;;;;7388265;19;19999;-79
2022/12/21 02:12:07;;;;;;;39.33;18.38;;;;;;;;;;7387714;19;20027;-79
2022/12/21 02:14:36;;;;;;;30.00;17.40;;;;;;;;;;7387644;19;20002;-81
2022/12/21 02:17:13;;;;;;;33.40;16.02;;;;;;;;;;7387113;19;20027;-82
2022/12/21 02:19:41;;;;;;;30.67;15.88;;;;;;;;;;7388130;19;20041;-79
2022/12/21 02:22:53;;;;;;;34.45;17.30;;;;;;;;;;7392260;19;20041;-82
2022/12/21 02:25:21;;;;;;;;;;;;;;;;;;7388099;19;19999;-80
2022/12/21 02:28:24;;;;;;;27.92;16.10;;;;;;;;;;7387899;19;19922;-80
2022/12/21 02:31:00;;;;;;;28.30;13.98;;;;;;;;;;7387697;19;20070;-81
2022/12/21 02:33:47;;;;;;;33.10;15.98;;;;;;;;;;7385273;19;20010;-80
2022/12/21 02:37:01;;;;;;;28.05;15.73;;;;;;;;;;7385582;19;20476;-81
2022/12/21 02:39:47;;;;;;;32.63;15.85;;;;;;;;;;7386760;19;20007;-81
2022/12/21 02:45:47;;;;;;;34.13;16.90;;;;;;;;;;7387051;19;20476;-80
2022/12/21 02:48:21;;;;;;;29.85;16.40;;;;;;;;;;7387346;19;20007;-80
2022/12/21 02:50:52;;;;;;;35.00;16.63;;;;;;;;;;7388183;19;20325;-79
2022/12/21 02:53:22;;;;;;;31.80;17.88;;;;;;;;;;7392763;19;20073;-80
2022/12/21 02:55:47;;;;;;;35.65;17.17;;;;;;;;;;7395515;19;20007;-82
2022/12/21 02:58:19;;;;;;;30.92;18.25;;;;;;;;;;7394589;19;20366;-79
2022/12/21 03:00:50;;;;;;;27.10;15.95;;;;;;;;;;7394714;19;20066;-78
2022/12/21 03:06:24;;;;;;;31.77;16.35;;;;;;;;;;7394173;19;20495;-78
2022/12/21 03:09:31;;;;;;;30.50;16.38;;;;;;;;;;7393995;19;20070;-79
2022/12/21 03:12:25;;;;;;;36.55;17.58;;;;;;;;;;7388732;19;20406;-77
2022/12/21 03:15:18;;;;;;;30.52;15.23;;;;;;;;;;7391230;19;20002;-79
2022/12/21 03:17:59;;;;;;;31.50;17.13;;;;;;;;;;7393287;19;20013;-78
2022/12/21 03:20:32;;;;;;;30.88;16.17;;;;;;;;;;7393559;19;20010;-78
2022/12/21 03:23:12;;;;;;;41.90;16.88;;;;;;;;;;7392785;19;20017;-80
2022/12/21 03:25:48;;;;;;;28.52;15.60;;;;;;;;;;7395693;19;20449;-79
2022/12/21 03:28:20;;;;;;;35.38;16.77;;;;;;;;;;7393608;19;20027;-79
2022/12/21 03:30:50;;;;;;;30.73;16.40;;;;;;;;;;7392184;19;20033;-80
2022/12/21 03:33:20;;;;;;;31.55;15.88;;;;;;;;;;7390400;19;20014;-79
2022/12/21 03:35:51;;;;;;;30.33;17.93;;;;;;;;;;7393936;19;20025;-77
2022/12/21 03:38:21;;;;;;;33.50;15.80;;;;;;;;;;7393800;19;20002;-78
2022/12/21 03:40:51;;;;;;;30.95;16.13;;;;;;;;;;7394432;19;20029;-78
2022/12/21 03:43:25;;;;;;;31.40;16.85;;;;;;;;;;7390903;19;20084;-77
2022/12/21 03:46:01;;;;;;;25.38;14.07;;;;;;;;;;7393561;19;20742;-79
2022/12/21 03:48:42;;;;;;;25.02;13.52;;;;;;;;;;7393534;19;19998;-78
2022/12/21 03:51:18;;;;;;;24.38;12.95;;;;;;;;;;7391876;19;20020;-79
2022/12/21 03:54:07;;;;;;;22.75;12.93;;;;;;;;;;7390434;19;20010;-78
2022/12/21 03:56:36;;;;;;;21.80;12.32;;;;;;;;;;7392004;19;20058;-78
2022/12/21 03:59:02;;;;;;;25.95;13.43;;;;;;;;;;7393162;19;20003;-79
2022/12/21 04:02:09;;;;;;;23.45;13.25;;;;;;;;;;7393157;19;20010;-80
2022/12/21 04:04:53;;;;;;;25.73;13.52;;;;;;;;;;7387929;19;20170;-78
2022/12/21 04:07:23;;;;;;;21.70;13.32;;;;;;;;;;7394410;19;20003;-78
2022/12/21 04:09:55;;;;;;;25.42;15.45;;;;;;;;;;7392397;19;19999;-78
2022/12/21 04:12:36;;;;;;;26.88;13.52;;;;;;;;;;7391540;19;20051;-78
2022/12/21 04:15:12;;;;;;;26.80;15.20;;;;;;;;;;7388443;19;20406;-79
2022/12/21 04:17:38;;;;;;;28.23;15.25;;;;;;;;;;7394786;19;20015;-79
2022/12/21 04:20:06;;;;;;;27.45;15.23;;;;;;;;;;7392593;19;20002;-79
2022/12/21 04:28:08;;;;;;;25.20;14.00;;;;;;;;;;7391850;19;20354;-76
2022/12/21 04:30:39;;;;;;;25.20;14.15;;;;;;;;;;7391387;19;20122;-78
2022/12/21 04:33:05;;;;;;;24.40;13.65;;;;;;;;;;7388839;19;20047;-77
2022/12/21 04:35:31;;;;;;;20.23;12.73;;;;;;;;;;7391860;19;20007;-77
2022/12/21 04:37:56;;;;;;;25.50;13.05;;;;;;;;;;7390820;19;20338;-78
2022/12/21 04:40:22;;;;;;;21.58;11.93;;;;;;;;;;7390948;19;20496;-79
2022/12/21 04:42:47;;;;;;;22.17;12.23;;;;;;;;;;7390143;19;20019;-77
2022/12/21 04:45:12;;;;;;;19.52;11.65;;;;;;;;;;7388981;19;20452;-77
2022/12/21 04:47:38;;;;;;;22.95;11.55;;;;;;;;;;7390622;19;20002;-79
2022/12/21 04:50:04;;;;;;;19.80;10.23;;;;;;;;;;7390783;19;20006;-78
2022/12/21 04:52:30;;;;;;;20.65;11.27;;;;;;;;;;7387025;19;20002;-77
2022/12/21 04:54:56;;;;;;;22.65;11.25;;;;;;;;;;7388281;19;20362;-76
2022/12/21 04:57:21;;;;;;;22.38;11.50;;;;;;;;;;7390149;19;19999;-77
2022/12/21 04:59:47;;;;;;;19.83;11.35;;;;;;;;;;7390509;19;20032;-78
2022/12/21 05:02:12;;;;;;;27.25;12.38;;;;;;;;;;7391368;19;20006;-77
2022/12/21 05:04:37;;;;;;;20.15;11.27;;;;;;;;;;7325153;19;20014;-78
2022/12/21 05:07:03;;;;;;;21.77;11.38;;;;;;;;;;7391908;19;19998;-78
2022/12/21 05:09:28;;;;;;;20.25;12.15;;;;;;;;;;7390106;19;20007;-76
2022/12/21 05:11:54;;;;;;;23.98;13.77;;;;;;;;;;7383279;19;20330;-77
2022/12/21 05:14:20;;;;;;;24.80;12.98;;;;;;;;;;7387718;19;19990;-77
2022/12/21 05:16:45;;;;;;;20.10;11.02;;;;;;;;;;7388112;19;20362;-78
2022/12/21 05:19:11;;;;;;;20.80;12.13;;;;;;;;;;7387560;19;20028;-77
2022/12/21 05:21:36;;;;;;;20.25;11.95;;;;;;;;;;7389021;19;20003;-77
2022/12/21 05:24:02;;;;;;;22.95;11.70;;;;;;;;;;7389969;19;20061;-78
2022/12/21 05:26:27;;;;;;;23.88;11.60;;;;;;;;;;7388517;19;20353;-77
2022/12/21 05:28:52;;;;;;;21.08;11.23;;;;;;;;;;7389351;19;19990;-77
2022/12/21 05:31:19;;;;;;;17.98;10.35;;;;;;;;;;7389392;19;20007;-77
2022/12/21 05:33:44;;;;;;;21.80;12.23;;;;;;;;;;7391550;19;20070;-76
2022/12/21 05:36:12;;;;;;;19.52;11.63;;;;;;;;;;7393319;19;20011;-79
2022/12/21 05:38:37;;;;;;;25.60;12.55;;;;;;;;;;7394771;19;20048;-78
2022/12/21 05:41:03;;;;;;;25.98;12.23;;;;;;;;;;7392747;19;19995;-77
2022/12/21 05:43:30;;;;;;;17.70;11.48;;;;;;;;;;7392031;19;20002;-78
2022/12/21 05:46:03;;;;;;;25.83;11.80;;;;;;;;;;7394689;19;20321;-76
2022/12/21 05:48:28;;;;;;;40.65;17.15;;;;;;;;;;7394889;19;20002;-77
2022/12/21 05:50:54;;;;;;;30.58;15.93;;;;;;;;;;7394642;19;20484;-75
2022/12/21 05:53:19;;;;;;;24.95;15.00;;;;;;;;;;7389034;19;20452;-77
2022/12/21 05:55:44;;;;;;;30.48;15.27;;;;;;;;;;7391739;19;19998;-77
2022/12/21 05:58:11;;;;;;;36.78;17.17;;;;;;;;;;7392591;19;20025;-76
2022/12/21 06:00:36;;;;;;;31.38;16.25;;;;;;;;;;7392345;19;20575;-77
2022/12/21 06:03:02;;;;;;;41.60;16.25;;;;;;;;;;7387842;19;19999;-78
2022/12/21 06:05:27;;;;;;;32.45;16.33;;;;;;;;;;7390180;19;19994;-77
2022/12/21 06:07:53;;;;;;;31.58;16.13;;;;;;;;;;7391864;19;20016;-77
2022/12/21 06:10:18;;;;;;;26.77;15.82;;;;;;;;;;7393101;19;20014;-78
2022/12/21 06:12:44;;;;;;;32.47;16.83;;;;;;;;;;7393712;19;20001;-77
2022/12/21 06:15:09;;;;;;;33.10;16.05;;;;;;;;;;7387801;19;20508;-78
2022/12/21 06:17:34;;;;;;;26.10;14.70;;;;;;;;;;7386747;19;19995;-78
2022/12/21 06:20:00;;;;;;;30.30;15.30;;;;;;;;;;7385164;19;20337;-78
2022/12/21 06:22:25;;;;;;;27.65;14.20;;;;;;;;;;7387033;19;20210;-78
2022/12/21 06:24:51;;;;;;;25.90;14.13;;;;;;;;;;7384708;19;19998;-80
2022/12/21 06:27:17;;;;;;;27.40;14.18;;;;;;;;;;7397753;19;19986;-88
2022/12/21 06:29:42;;;;;;;31.13;15.40;;;;;;;;;;7414167;19;20249;-87
2022/12/21 06:32:07;;;;;;;29.90;15.32;;;;;;;;;;7401025;19;20318;-87
2022/12/21 06:34:33;;;;;;;26.83;14.20;;;;;;;;;;7397873;19;20329;-88
2022/12/21 06:36:58;;;;;;;35.78;14.85;;;;;;;;;;7411125;19;20021;-88
2022/12/21 06:39:23;;;;;;;25.55;15.00;;;;;;;;;;7411600;19;19998;-87
2022/12/21 06:41:49;;;;;;;26.90;13.95;;;;;;;;;;7418342;19;19995;-87
2022/12/21 06:44:14;;;;;;;22.85;12.80;;;;;;;;;;7413522;19;20001;-89
2022/12/21 06:46:40;;;;;;;21.13;12.70;;;;;;;;;;7407196;19;20002;-88
2022/12/21 06:49:05;;;;;;;21.80;13.40;;;;;;;;;;7404377;19;19995;-89
2022/12/21 06:51:30;;;;;;;21.35;13.02;;;;;;;;;;7401415;19;20070;-88
2022/12/21 06:53:56;;;;;;;26.65;13.73;;;;;;;;;;7399842;19;19990;-89
2022/12/21 06:56:21;;;;;;;21.45;12.88;;;;;;;;;;7402137;19;20060;-88
2022/12/21 06:58:52;;;;;;;37.20;15.60;;;;;;;;;;7398369;19;19995;-88
2022/12/21 07:01:21;;;;;;;25.27;14.88;;;;;;;;;;7399382;19;20094;-89
2022/12/21 07:03:47;;;;;;;21.70;14.15;;;;;;;;;;7396070;19;20016;-87
2022/12/21 07:06:15;;;;;;;31.95;15.18;;;;;;;;;;7400146;19;20033;-88
2022/12/21 07:08:41;;;;;;;34.22;14.60;;;;;;;;;;7394126;19;19993;-88
2022/12/21 07:11:10;;;;;;;25.77;13.50;;;;;;;;;;7395459;19;20019;-88
2022/12/21 07:13:37;;;;;;;24.98;13.35;;;;;;;;;;7391218;19;20011;-81
2022/12/21 07:16:02;;;;;;;22.85;12.95;;;;;;;;;;7390818;19;20042;-80
2022/12/21 07:18:28;;;;;;;22.80;12.15;;;;;;;;;;7393369;19;20006;-80
2022/12/21 07:20:57;;;;;;;28.13;14.45;;;;;;;;;;7395312;19;20127;-80
2022/12/21 07:23:23;;;;;;;28.00;14.10;;;;;;;;;;7391290;19;20075;-82
2022/12/21 07:25:49;;;;;;;31.30;13.68;;;;;;;;;;7391098;19;20329;-80
2022/12/21 07:28:14;;;;;;;35.90;14.68;;;;;;;;;;7390593;19;20006;-80
2022/12/21 07:30:39;;;;;;;27.10;14.43;;;;;;;;;;7391107;19;19998;-80
2022/12/21 07:33:05;;;;;;;29.45;15.00;;;;;;;;;;7388188;19;20003;-80
2022/12/21 07:35:31;;;;;;;27.70;14.75;;;;;;;;;;7389843;19;20002;-81
2022/12/21 07:37:56;;;;;;;34.38;15.65;;;;;;;;;;7390258;19;20466;-80
2022/12/21 07:40:22;;;;;;;28.77;14.02;;;;;;;;;;7394525;19;20058;-81
2022/12/21 07:42:47;;;;;;;26.40;15.00;;;;;;;;;;7395651;19;20026;-80
2022/12/21 07:45:13;;;;;;;28.50;14.75;;;;;;;;;;7394353;19;20084;-81
2022/12/21 07:47:39;;;;;;;29.95;14.80;;;;;;;;;;7396750;19;20006;-80
2022/12/21 07:50:06;;;;;;;29.08;14.65;;;;;;;;;;7397045;19;20003;-80
2022/12/21 07:52:32;;;;;;;27.77;14.98;;;;;;;;;;7393563;19;20002;-80
2022/12/21 07:54:58;;;;;;;28.50;14.38;;;;;;;;;;7394460;19;19999;-80
2022/12/21 07:57:23;;;;;;;30.23;13.82;;;;;;;;;;7396896;19;19999;-80
2022/12/21 07:59:49;;;;;;;28.80;15.80;;;;;;;;;;7394914;19;19994;-79
2022/12/21 08:02:14;;;;;;;38.13;15.50;;;;;;;;;;7396711;19;20007;-80
2022/12/21 08:04:39;;;;;;;39.35;16.23;;;;;;;;;;7394151;19;20370;-80
2022/12/21 08:07:05;;;;;;;25.83;16.05;;;;;;;;;;7398468;19;20022;-80
2022/12/21 08:09:31;;;;;;;35.47;18.98;;;;;;;;;;7394931;19;20357;-81
2022/12/21 08:11:57;;;;;;;30.98;17.05;;;;;;;;;;7395376;19;20006;-79
2022/12/21 08:14:23;;;;;;;27.15;15.10;;;;;;;;;;7394082;19;20426;-81
2022/12/21 08:16:48;;;;;;;30.60;14.52;;;;;;;;;;7397069;19;19998;-80
2022/12/21 08:19:13;;;;;;;22.58;12.73;;;;;;;;;;7395860;19;19995;-80
2022/12/21 08:21:39;;;;;;;23.88;12.85;;;;;;;;;;7396574;19;20480;-80
2022/12/21 08:24:04;;;;;;;25.30;14.00;;;;;;;;;;7393900;19;20343;-78
2022/12/21 08:26:30;;;;;;;25.30;13.15;;;;;;;;;;7395601;19;19999;-78
2022/12/21 08:28:57;;;;;;;25.13;12.13;;;;;;;;;;7394084;19;19994;-78
2022/12/21 08:31:22;;;;;;;24.05;11.43;;;;;;;;;;7394623;19;20354;-80
2022/12/21 08:33:47;;;;;;;21.63;11.43;;;;;;;;;;7392798;19;20036;-79
2022/12/21 08:36:15;;;;;;;22.73;12.48;;;;;;;;;;7395759;19;20024;-80
2022/12/21 08:38:41;;;;;;;24.92;13.20;;;;;;;;;;7395504;19;20461;-79
2022/12/21 08:41:06;;;;;;;26.65;11.98;;;;;;;;;;7394155;19;20022;-79
2022/12/21 08:43:35;;;;;;;22.92;11.90;;;;;;;;;;7394819;19;20002;-79
2022/12/21 08:46:05;;;;;;;35.75;16.58;;;;;;;;;;7395364;19;20006;-79
2022/12/21 08:48:31;;;;;;;30.55;16.65;;;;;;;;;;7395328;19;20014;-79
2022/12/21 08:50:56;;;;;;;21.80;11.85;;;;;;;;;;7394687;19;19998;-79
2022/12/21 08:53:22;;;;;;;20.10;10.43;;;;;;;;;;7392514;19;20002;-79
2022/12/21 08:55:48;;;;;;;19.17;11.80;;;;;;;;;;7394982;19;19995;-79
2022/12/21 08:58:14;;;;;;;18.23;10.82;;;;;;;;;;7394910;19;20328;-77
2022/12/21 09:00:39;;;;;;;17.17;9.88;;;;;;;;;;7393073;19;19998;-78
2022/12/21 09:03:06;;;;;;;18.33;10.68;;;;;;;;;;7393716;19;19998;-79
2022/12/21 09:05:32;;;;;;;14.77;9.38;;;;;;;;;;7394872;19;20023;-79
2022/12/21 09:07:57;;;;;;;16.95;9.77;;;;;;;;;;7394585;19;20094;-79
2022/12/21 09:10:23;;;;;;;18.63;9.77;;;;;;;;;;7394121;19;20002;-79
2022/12/21 09:12:48;;;;;;;20.02;10.25;;;;;;;;;;7392381;19;20025;-80
2022/12/21 09:15:14;;;;;;;18.83;10.48;;;;;;;;;;7392583;19;20003;-78
2022/12/21 09:17:39;;;;;;;15.02;8.80;;;;;;;;;;7393924;19;20016;-78
2022/12/21 09:20:05;;;;;;;16.77;9.52;;;;;;;;;;7393871;19;20520;-78
2022/12/21 09:22:30;;;;;;;16.48;9.13;;;;;;;;;;7393781;19;19999;-78
2022/12/21 09:24:56;;;;;;;13.77;8.10;;;;;;;;;;7393372;19;20011;-78
2022/12/21 09:27:21;;;;;;;15.15;8.73;;;;;;;;;;7395308;19;20015;-78
2022/12/21 09:29:47;;;;;;;16.30;7.90;;;;;;;;;;7393665;19;20001;-78
2022/12/21 09:32:12;;;;;;;14.52;8.07;;;;;;;;;;7392225;19;20066;-78
2022/12/21 09:34:37;;;;;;;12.80;7.60;;;;;;;;;;7391564;19;19999;-79
2022/12/21 09:37:03;;;;;;;13.68;7.82;;;;;;;;;;7393299;19;20389;-79
2022/12/21 09:39:28;;;;;;;14.65;8.32;;;;;;;;;;7393445;19;19994;-77
2022/12/21 09:42:15;;;;;;;14.23;8.85;;;;;;;;;;7393044;19;20070;-78
2022/12/21 09:45:05;;;;;;;20.17;8.55;;;;;;;;;;7391198;19;20016;-80
2022/12/21 09:48:01;;;;;;;12.63;7.60;;;;;;;;;;7392956;19;20452;-78
2022/12/21 09:50:31;;;;;;;12.23;7.10;;;;;;;;;;7392858;19;20002;-79
2022/12/21 09:53:01;;;;;;;14.15;8.30;;;;;;;;;;7391256;19;20447;-79
2022/12/21 09:55:32;;;;;;;13.02;7.97;;;;;;;;;;7393324;19;20021;-79
2022/12/21 09:58:05;;;;;;;13.00;7.18;;;;;;;;;;7392308;19;20393;-78
2022/12/21 10:00:33;;;;;;;15.45;7.45;;;;;;;;;;7393135;19;20062;-79
2022/12/21 10:03:27;;;;;;;11.75;6.78;;;;;;;;;;7390676;19;20062;-79
2022/12/21 10:06:15;;;;;;;12.80;7.65;;;;;;;;;;7391391;19;20036;-78
2022/12/21 10:09:09;;;;;;;14.73;8.18;;;;;;;;;;7392688;19;20011;-78
2022/12/21 10:12:12;;;;;;;15.27;8.30;;;;;;;;;;7390394;19;20026;-79
2022/12/21 10:15:02;;;;;;;14.55;8.88;;;;;;;;;;7394497;19;20088;-79
2022/12/21 10:17:45;;;;;;;11.90;7.22;;;;;;;;;;7392371;19;19994;-79
2022/12/21 10:20:23;;;;;;;10.80;7.25;;;;;;;;;;7391086;19;20010;-78
2022/12/21 10:22:54;;;;;;;9.57;5.75;;;;;;;;;;7391550;19;20003;-79
2022/12/21 10:25:24;;;;;;;7.60;4.57;;;;;;;;;;7390167;19;20058;-79
2022/12/21 10:28:00;;;;;;;6.93;4.65;;;;;;;;;;7392168;19;20039;-79
2022/12/21 10:30:26;;;;;;;7.97;4.65;;;;;;;;;;7390329;19;20084;-80
2022/12/21 10:32:57;;;;;;;7.13;4.78;;;;;;;;;;7388661;19;19990;-79
2022/12/21 10:35:36;;;;;;;6.85;4.60;;;;;;;;;;7390050;19;20489;-80
2022/12/21 10:38:12;;;;;;;7.72;4.90;;;;;;;;;;7391916;19;19991;-80
2022/12/21 10:40:38;;;;;;;11.40;7.20;;;;;;;;;;7391642;19;19995;-80
2022/12/21 10:43:03;;;;;;;14.43;8.80;;;;;;;;;;7391452;19;19991;-80
2022/12/21 10:45:28;;;;;;;16.58;9.43;;;;;;;;;;7391268;19;19999;-79
2022/12/21 10:47:54;;;;;;;18.20;9.70;;;;;;;;;;7391628;19;20019;-80
2022/12/21 10:50:22;;;;;;;19.23;9.75;;;;;;;;;;7390945;19;19998;-80
2022/12/21 10:52:52;;;;;;;17.83;10.88;;;;;;;;;;7389377;19;20111;-80
2022/12/21 10:55:18;;;;;;;19.20;10.52;;;;;;;;;;7389830;19;20443;-80
2022/12/21 10:58:16;;;;;;;15.52;7.32;;;;;;;;;;7391868;19;19994;-80
2022/12/21 11:00:56;;;;;;;12.98;6.72;;;;;;;;;;7388856;19;20353;-81
2022/12/21 11:03:36;;;;;;;8.88;5.00;;;;;;;;;;7390540;19;20002;-81
2022/12/21 11:06:19;;;;;;;8.82;5.13;;;;;;;;;;7391134;19;20477;-82
2022/12/21 11:08:52;;;;;;;7.85;4.45;;;;;;;;;;7391865;19;20070;-82
2022/12/21 11:11:33;;;;;;;7.70;4.78;;;;;;;;;;7391545;19;20019;-82
2022/12/21 11:14:12;;;;;;;7.28;4.53;;;;;;;;;;7391839;19;19999;-82
2022/12/21 11:16:38;;;;;;;6.45;4.22;;;;;;;;;;7398819;19;19999;-81
2022/12/21 11:19:03;;;;;;;6.85;3.95;;;;;;;;;;7398147;19;19995;-82
2022/12/21 11:21:54;;;;;;;6.68;4.15;;;;;;;;;;7396835;19;20328;-82
2022/12/21 11:24:23;;;;;;;8.90;4.32;;;;;;;;;;7398307;19;19991;-83
2022/12/21 11:26:52;;;;;;;7.53;3.92;;;;;;;;;;7401967;19;19991;-81
2022/12/21 11:29:24;;;;;;;7.60;4.05;;;;;;;;;;7406815;19;19998;-82
2022/12/21 11:31:52;;;;;;;6.55;3.85;;;;;;;;;;7409124;19;20011;-82
2022/12/21 11:34:34;;;;;;;8.95;4.30;;;;;;;;;;7396722;19;19997;-82
2022/12/21 11:37:03;;;;;;;7.13;3.70;;;;;;;;;;7397267;19;20084;-82
2022/12/21 11:39:29;;;;;;;6.75;3.78;;;;;;;;;;7398448;19;20413;-82
2022/12/21 11:41:55;;;;;;;5.53;3.63;;;;;;;;;;7397655;19;20095;-82
2022/12/21 11:44:28;;;;;;;5.65;3.50;;;;;;;;;;7395686;19;20072;-83
2022/12/21 11:47:14;;;;;;;6.53;3.50;;;;;;;;;;7398096;19;20015;-83
2022/12/21 11:50:17;;;;;;;5.43;3.40;;;;;;;;;;7397627;19;19990;-82
2022/12/21 11:53:30;;;;;;;6.93;2.80;;;;;;;;;;7393126;19;20460;-82
2022/12/21 11:56:01;;;;;;;6.00;2.70;;;;;;;;;;7397134;19;20450;-82
2022/12/21 11:58:50;;;;;;;4.90;2.33;;;;;;;;;;7397505;19;19995;-82
2022/12/21 12:01:53;;;;;;;3.67;2.10;;;;;;;;;;7396880;19;19994;-82
2022/12/21 12:04:21;;;;;;;3.30;1.90;;;;;;;;;;7393593;19;19995;-81
2022/12/21 12:07:31;;;;;;;2.58;2.05;;;;;;;;;;7396057;19;20014;-82
2022/12/21 12:10:30;;;;;;;4.85;2.70;;;;;;;;;;7398747;19;20027;-81
2022/12/21 12:13:15;;;;;;;4.32;2.30;;;;;;;;;;7401344;19;19995;-81
2022/12/21 12:15:40;;;;;;;3.40;1.98;;;;;;;;;;7398912;19;20035;-82
2022/12/21 12:18:24;;;;;;;6.07;2.60;;;;;;;;;;7400791;19;20010;-83
2022/12/21 12:21:11;;;;;;;4.15;2.33;;;;;;;;;;7398504;19;20003;-82
2022/12/21 12:23:52;;;;;;;4.00;2.65;;;;;;;;;;7392065;19;20006;-82
2022/12/21 12:26:26;;;;;;;5.43;2.60;;;;;;;;;;7399796;19;20002;-82
2022/12/21 12:29:06;;;;;;;4.28;2.58;;;;;;;;;;7396219;19;20029;-84
2022/12/21 12:31:53;;;;;;;5.38;2.97;;;;;;;;;;7397157;19;20087;-83
2022/12/21 12:34:39;;;;;;;5.63;2.72;;;;;;;;;;7393863;19;20432;-83
2022/12/21 12:37:21;;;;;;;7.28;2.90;;;;;;;;;;7391090;19;20015;-82
2022/12/21 12:40:11;;;;;;;4.80;3.03;;;;;;;;;;7401668;19;20017;-84
2022/12/21 12:42:52;;;;;;;5.95;2.88;;;;;;;;;;7401546;19;20119;-86
2022/12/21 12:45:31;;;;;;;6.05;3.25;;;;;;;;;;7401625;19;20011;-86
2022/12/21 12:48:23;;;;;;;5.45;2.97;;;;;;;;;;7392632;19;20003;-87
2022/12/21 12:51:06;;;;;;;3.70;2.58;;;;;;;;;;7392366;19;20007;-80
2022/12/21 12:53:56;;;;;;;6.43;3.00;;;;;;;;;;7390207;19;20026;-79
2022/12/21 12:56:28;;;;;;;2.92;1.98;;;;;;;;;;7393301;19;20070;-80
2022/12/21 12:59:07;;;;;;;4.20;1.75;;;;;;;;;;7392149;19;20389;-83
2022/12/21 13:01:50;;;;;;;2.33;1.60;;;;;;;;;;7395456;19;20468;-82
2022/12/21 13:04:39;;;;;;;2.85;1.58;;;;;;;;;;7390663;19;20053;-85
2022/12/21 13:07:19;;;;;;;2.75;1.50;;;;;;;;;;7400798;19;20002;-81
2022/12/21 13:09:53;;;;;;;2.63;1.70;;;;;;;;;;7394552;19;20361;-85
2022/12/21 13:12:42;;;;;;;2.63;1.48;;;;;;;;;;7394273;19;20122;-87
2022/12/21 13:15:17;;;;;;;2.33;1.80;;;;;;;;;;7391298;19;20103;-83
2022/12/21 13:18:03;;;;;;;3.08;1.73;;;;;;;;;;7394872;19;20037;-79
2022/12/21 13:20:33;;;;;;;4.82;1.90;;;;;;;;;;7392677;19;20007;-82
2022/12/21 13:23:10;;;;;;;3.83;2.13;;;;;;;;;;7391247;19;20478;-80
2022/12/21 13:25:51;;;;;;;3.33;1.73;;;;;;;;;;7389663;19;20409;-82
2022/12/21 13:28:21;;;;;;;2.13;1.50;;;;;;;;;;7389264;19;20353;-79
2022/12/21 13:30:49;;;;;;;2.55;1.50;;;;;;;;;;7389270;19;20002;-82
2022/12/21 13:33:17;;;;;;;2.60;1.60;;;;;;;;;;7387208;19;20457;-82
2022/12/21 13:35:55;;;;;;;3.05;1.40;;;;;;;;;;7389160;19;20040;-79
2022/12/21 13:38:30;;;;;;;2.80;1.52;;;;;;;;;;7388657;19;20353;-79
2022/12/21 13:41:10;;;;;;;4.03;1.85;;;;;;;;;;7391613;19;20111;-79
2022/12/21 13:43:42;;;;;;;3.67;1.88;;;;;;;;;;7390935;19;20041;-83
2022/12/21 13:46:07;;;;;;;;;;;;;;;;;;7389860;19;19999;-82
2022/12/21 13:48:38;;;;;;;2.25;1.30;;;;;;;;;;7390766;19;19967;-84
2022/12/21 13:51:18;;;;;;;2.45;1.40;;;;;;;;;;7389338;19;20012;-83
2022/12/21 13:53:59;;;;;;;2.47;1.33;;;;;;;;;;7388674;19;20051;-82
2022/12/21 13:56:45;;;;;;;2.22;1.33;;;;;;;;;;7389253;19;20010;-82
2022/12/21 13:59:24;;;;;;;2.47;1.27;;;;;;;;;;7394597;19;20002;-82
2022/12/21 14:02:04;;;;;;;1.73;1.35;;;;;;;;;;7395303;19;20041;-78
2022/12/21 14:04:30;;;;;;;1.48;1.30;;;;;;;;;;7391862;19;20066;-79
2022/12/21 14:07:10;;;;;;;1.90;1.20;;;;;;;;;;7382225;19;20460;-78
2022/12/21 14:10:06;;;;;;;2.10;1.30;;;;;;;;;;7389451;19;20609;-77
2022/12/21 14:12:41;;;;;;;2.13;1.40;;;;;;;;;;7387600;19;20010;-76
2022/12/21 14:15:59;;;;;;;2.22;1.38;;;;;;;;;;7388330;19;20020;-76
2022/12/21 14:18:34;;;;;;;4.25;1.38;;;;;;;;;;7386015;19;20054;-79
2022/12/21 14:21:06;;;;;;;2.85;1.20;;;;;;;;;;7389051;19;20043;-78
2022/12/21 14:23:34;;;;;;;2.00;1.10;;;;;;;;;;7386549;19;20005;-77
2022/12/21 14:26:00;;;;;;;2.35;1.77;;;;;;;;;;7386884;19;20003;-77
2022/12/21 14:28:46;;;;;;;10.95;4.68;;;;;;;;;;7384628;19;20003;-77
2022/12/21 14:31:11;;;;;;;7.68;3.75;;;;;;;;;;7384694;19;19998;-77
2022/12/21 14:33:47;;;;;;;8.23;4.40;;;;;;;;;;7383583;19;19999;-77
2022/12/21 14:36:15;;;;;;;6.47;1.95;;;;;;;;;;7386542;19;20046;-77
2022/12/21 14:38:42;;;;;;;4.18;2.10;;;;;;;;;;7385013;19;20003;-77
2022/12/21 14:41:07;;;;;;;4.05;1.73;;;;;;;;;;7386746;19;20003;-70
2022/12/21 14:44:11;;;;;;;4.00;1.60;;;;;;;;;;7383760;19;20044;-72
2022/12/21 14:46:57;;;;;;;4.32;1.40;;;;;;;;;;7390025;19;20285;-73
2022/12/21 14:49:27;;;;;;;2.33;1.50;;;;;;;;;;7393897;19;20010;-73
2022/12/21 14:51:55;;;;;;;2.78;1.50;;;;;;;;;;7396128;19;20006;-72
2022/12/21 14:54:33;;;;;;;4.85;1.50;;;;;;;;;;7393205;19;20472;-74
2022/12/21 14:57:08;;;;;;;1.50;1.15;;;;;;;;;;7396653;19;20564;-73
2022/12/21 14:59:42;;;;;;;2.13;1.20;;;;;;;;;;7395362;19;20005;-73
2022/12/21 15:02:28;;;;;;;2.97;1.60;;;;;;;;;;7392138;19;20036;-78
2022/12/21 15:04:56;;;;;;;2.03;1.50;;;;;;;;;;7393137;19;20370;-79
2022/12/21 15:07:26;;;;;;;3.00;1.42;;;;;;;;;;7391937;19;20011;-79